createdAt,value
2017-05-26T00:01:53.207Z,7.30
2017-05-26T00:04:19.495Z,8.50
2017-05-26T00:06:47.788Z,9.46
2017-05-26T00:09:13.840Z,8.10
2017-05-26T00:11:41.404Z,8.48
2017-05-26T00:14:10.253Z,9.98
2017-05-26T00:16:38.479Z,7.70
2017-05-26T00:19:07.943Z,8.50
2017-05-26T00:21:38.000Z,8.12
2017-05-26T00:24:05.724Z,7.88
2017-05-26T00:26:33.594Z,8.72
2017-05-26T00:29:00.518Z,9.00
2017-05-26T00:31:36.881Z,8.42
2017-05-26T00:34:06.805Z,9.58
2017-05-26T00:36:34.906Z,8.36
2017-05-26T00:39:03.877Z,7.94
2017-05-26T00:41:33.889Z,7.82
2017-05-26T00:44:02.065Z,7.94
2017-05-26T00:46:29.501Z,7.72
2017-05-26T00:48:55.595Z,10.28
2017-05-26T00:51:24.923Z,8.90
2017-05-26T00:53:52.495Z,7.96
2017-05-26T00:56:19.167Z,7.46
2017-05-26T00:58:45.647Z,7.20
2017-05-26T01:01:12.405Z,8.20
2017-05-26T01:03:39.876Z,7.38
2017-05-26T01:06:07.433Z,8.34
2017-05-26T01:08:34.491Z,8.40
2017-05-26T01:11:00.536Z,8.38
2017-05-26T01:13:27.526Z,8.80
2017-05-26T01:15:55.170Z,8.62
2017-05-26T01:18:22.025Z,8.68
2017-05-26T01:20:49.635Z,8.16
2017-05-26T01:23:17.007Z,13.80
2017-05-26T01:25:44.777Z,9.76
2017-05-26T01:28:10.755Z,8.14
2017-05-26T01:30:39.905Z,10.10
2017-05-26T01:33:11.694Z,9.30
2017-05-26T01:35:39.382Z,9.36
2017-05-26T01:38:06.136Z,9.68
2017-05-26T01:40:32.858Z,8.66
2017-05-26T01:43:00.422Z,9.94
2017-05-26T01:45:26.853Z,8.22
2017-05-26T01:47:54.132Z,8.66
2017-05-26T01:50:20.903Z,9.92
2017-05-26T01:52:47.952Z,9.42
2017-05-26T01:55:16.160Z,9.00
2017-05-26T01:57:44.035Z,11.08
2017-05-26T02:00:10.089Z,8.80
2017-05-26T02:02:36.829Z,8.18
2017-05-26T02:05:04.458Z,8.88
2017-05-26T02:07:31.454Z,10.32
2017-05-26T02:09:58.796Z,9.08
2017-05-26T02:12:26.597Z,8.64
2017-05-26T02:14:54.106Z,9.62
2017-05-26T02:17:20.872Z,8.50
2017-05-26T02:19:49.497Z,9.64
2017-05-26T02:22:16.291Z,9.20
2017-05-26T02:24:47.453Z,9.10
2017-05-26T02:27:13.863Z,9.52
2017-05-26T02:29:40.609Z,9.52
2017-05-26T02:32:09.624Z,9.64
2017-05-26T02:34:38.259Z,9.98
2017-05-26T02:37:04.239Z,9.80
2017-05-26T02:39:31.089Z,9.80
2017-05-26T02:41:58.060Z,8.68
2017-05-26T02:44:25.301Z,9.50
2017-05-26T02:46:52.977Z,9.90
2017-05-26T02:49:22.836Z,9.82
2017-05-26T02:51:50.355Z,10.54
2017-05-26T02:54:17.114Z,9.08
2017-05-26T02:56:43.098Z,10.20
2017-05-26T02:59:09.178Z,10.42
2017-05-26T03:01:35.950Z,8.84
2017-05-26T03:04:02.664Z,10.08
2017-05-26T03:06:29.743Z,9.64
2017-05-26T03:08:56.443Z,10.32
2017-05-26T03:11:24.572Z,10.18
2017-05-26T03:13:51.291Z,11.12
2017-05-26T03:16:19.717Z,9.86
2017-05-26T03:18:46.682Z,9.72
2017-05-26T03:21:13.322Z,11.86
2017-05-26T03:23:40.061Z,9.56
2017-05-26T03:26:06.759Z,12.04
2017-05-26T03:28:34.283Z,9.70
2017-05-26T03:31:00.999Z,15.32
2017-05-26T03:33:27.721Z,9.88
2017-05-26T03:35:54.480Z,10.74
2017-05-26T03:38:21.286Z,10.94
2017-05-26T03:40:48.316Z,10.44
2017-05-26T03:43:15.238Z,10.98
2017-05-26T03:45:41.257Z,10.00
2017-05-26T03:48:08.168Z,9.96
2017-05-26T03:50:34.954Z,12.86
2017-05-26T03:53:01.022Z,11.38
2017-05-26T03:55:27.732Z,9.64
2017-05-26T03:57:56.537Z,10.42
2017-05-26T04:00:24.127Z,10.58
2017-05-26T04:02:53.738Z,10.66
2017-05-26T04:05:22.016Z,11.62
2017-05-26T04:07:48.741Z,9.34
2017-05-26T04:10:15.699Z,10.70
2017-05-26T04:12:42.449Z,9.94
2017-05-26T04:15:09.471Z,10.12
2017-05-26T04:17:36.350Z,13.52
2017-05-26T04:20:03.629Z,10.58
2017-05-26T04:22:29.679Z,11.06
2017-05-26T04:24:57.360Z,10.86
2017-05-26T04:27:24.036Z,10.24
2017-05-26T04:29:50.819Z,12.58
2017-05-26T04:32:17.825Z,11.10
2017-05-26T04:34:44.551Z,13.68
2017-05-26T04:37:10.692Z,10.82
2017-05-26T04:39:37.380Z,10.44
2017-05-26T04:42:05.398Z,12.42
2017-05-26T04:44:32.100Z,11.00
2017-05-26T04:46:58.100Z,10.22
2017-05-26T04:49:24.811Z,9.70
2017-05-26T04:51:50.775Z,13.20
2017-05-26T04:54:17.549Z,9.70
2017-05-26T04:56:43.567Z,12.46
2017-05-26T04:59:11.271Z,13.88
2017-05-26T05:01:38.588Z,10.88
2017-05-26T05:04:05.874Z,11.48
2017-05-26T05:06:32.451Z,10.34
2017-05-26T05:08:59.212Z,8.46
2017-05-26T05:11:25.233Z,8.54
2017-05-26T05:13:51.978Z,9.20
2017-05-26T05:16:18.885Z,10.74
2017-05-26T05:18:45.625Z,9.00
2017-05-26T05:21:12.412Z,9.50
2017-05-26T05:23:39.363Z,11.62
2017-05-26T05:26:06.293Z,9.42
2017-05-26T05:28:33.051Z,8.46
2017-05-26T05:30:59.767Z,11.12
2017-05-26T05:33:26.567Z,14.64
2017-05-26T05:35:56.868Z,9.88
2017-05-26T05:38:22.985Z,9.18
2017-05-26T05:40:49.694Z,8.60
2017-05-26T05:43:19.309Z,8.88
2017-05-26T05:45:46.980Z,9.52
2017-05-26T05:48:16.178Z,9.66
2017-05-26T05:50:42.909Z,8.86
2017-05-26T05:53:09.674Z,9.08
2017-05-26T05:55:37.552Z,8.44
2017-05-26T05:58:04.787Z,8.06
2017-05-26T06:00:31.476Z,11.28
2017-05-26T06:02:59.124Z,8.58
2017-05-26T06:05:25.907Z,9.18
2017-05-26T06:07:52.769Z,8.00
2017-05-26T06:10:19.520Z,9.14
2017-05-26T06:12:46.268Z,9.16
2017-05-26T06:15:17.261Z,10.32
2017-05-26T06:17:43.955Z,9.24
2017-05-26T06:20:09.992Z,8.50
2017-05-26T06:22:36.683Z,8.68
2017-05-26T06:25:03.364Z,10.56
2017-05-26T06:27:30.054Z,10.80
2017-05-26T06:29:57.181Z,9.68
2017-05-26T06:32:24.737Z,10.14
2017-05-26T06:34:54.169Z,8.56
2017-05-26T06:37:21.090Z,13.04
2017-05-26T06:39:47.874Z,9.04
2017-05-26T06:42:13.816Z,11.52
2017-05-26T06:44:41.549Z,9.18
2017-05-26T06:47:08.280Z,11.02
2017-05-26T06:49:35.792Z,9.76
2017-05-26T06:52:03.715Z,10.16
2017-05-26T06:54:29.753Z,10.08
2017-05-26T06:56:55.752Z,9.24
2017-05-26T06:59:22.552Z,9.56
2017-05-26T07:01:48.538Z,8.10
2017-05-26T07:04:14.544Z,10.50
2017-05-26T07:06:42.109Z,9.52
2017-05-26T07:09:08.829Z,9.16
2017-05-26T07:11:35.547Z,10.30
2017-05-26T07:14:03.276Z,8.94
2017-05-26T07:16:30.051Z,10.14
2017-05-26T07:18:57.761Z,9.20
2017-05-26T07:21:27.658Z,8.08
2017-05-26T07:23:56.691Z,7.90
2017-05-26T07:26:25.248Z,8.26
2017-05-26T07:28:57.694Z,9.48
2017-05-26T07:31:26.698Z,7.48
2017-05-26T07:34:03.739Z,8.66
2017-05-26T07:36:30.374Z,8.88
2017-05-26T07:38:59.821Z,8.74
2017-05-26T07:41:28.884Z,9.22
2017-05-26T07:43:56.864Z,9.84
2017-05-26T07:46:24.740Z,9.14
2017-05-26T07:48:51.366Z,8.70
2017-05-26T07:51:20.154Z,7.58
2017-05-26T07:53:47.399Z,7.90
2017-05-26T07:58:47.533Z,9.54
2017-05-26T08:01:15.751Z,8.70
2017-05-26T08:03:48.386Z,8.30
2017-05-26T08:06:17.494Z,8.12
2017-05-26T08:08:43.635Z,9.72
2017-05-26T08:13:42.484Z,11.56
2017-05-26T08:16:11.808Z,9.18
2017-05-26T08:18:41.797Z,9.60
2017-05-26T08:21:09.541Z,10.42
2017-05-26T08:23:49.319Z,8.78
2017-05-26T08:26:17.117Z,17.02
2017-05-26T08:28:45.664Z,10.00
2017-05-26T08:31:13.576Z,8.84
2017-05-26T08:33:42.942Z,8.18
2017-05-26T08:36:13.206Z,10.76
2017-05-26T08:38:41.778Z,9.54
2017-05-26T08:41:08.710Z,9.46
2017-05-26T08:43:35.623Z,9.22
2017-05-26T08:46:08.336Z,10.22
2017-05-26T08:48:36.440Z,7.98
2017-05-26T08:51:03.633Z,8.12
2017-05-26T08:53:30.744Z,8.44
2017-05-26T08:55:57.655Z,8.70
2017-05-26T08:58:26.222Z,7.04
2017-05-26T09:03:28.252Z,8.74
2017-05-26T09:05:56.045Z,7.64
2017-05-26T09:16:22.897Z,7.70
2017-05-26T09:18:53.450Z,6.90
2017-05-26T09:24:27.453Z,6.92
2017-05-26T09:29:31.960Z,5.90
2017-05-26T09:32:13.288Z,7.16
2017-05-26T09:34:42.203Z,7.12
2017-05-26T09:37:11.378Z,6.34
2017-05-26T09:39:40.035Z,7.98
2017-05-26T09:42:10.137Z,6.48
2017-05-26T09:44:39.233Z,5.72
2017-05-26T09:47:08.574Z,6.78
2017-05-26T09:49:39.734Z,7.22
2017-05-26T09:57:20.693Z,4.98
2017-05-26T09:59:47.339Z,7.38
2017-05-26T10:02:18.230Z,5.02
2017-05-26T10:07:19.122Z,4.78
2017-05-26T10:09:47.717Z,9.62
2017-05-26T10:12:15.774Z,5.60
2017-05-26T10:17:22.694Z,6.16
2017-05-26T10:19:49.595Z,6.56
2017-05-26T10:22:17.862Z,5.16
2017-05-26T10:24:47.823Z,6.02
2017-05-26T10:27:15.214Z,6.56
2017-05-26T10:29:42.224Z,5.28
2017-05-26T10:32:08.711Z,7.80
2017-05-26T10:34:34.881Z,5.98
2017-05-26T10:37:01.705Z,6.00
2017-05-26T10:39:32.785Z,5.86
2017-05-26T10:42:02.274Z,5.60
2017-05-26T10:47:03.810Z,6.72
2017-05-26T10:49:31.547Z,6.80
2017-05-26T10:54:34.444Z,8.32
2017-05-26T10:57:03.782Z,5.94
2017-05-26T10:59:30.933Z,5.36
2017-05-26T11:02:00.488Z,6.70
2017-05-26T11:04:30.646Z,5.92
2017-05-26T11:06:59.088Z,6.00
2017-05-26T11:09:28.429Z,6.74
2017-05-26T11:11:54.939Z,7.34
2017-05-26T11:14:22.669Z,6.04
2017-05-26T11:16:48.756Z,5.72
2017-05-26T11:19:14.806Z,5.78
2017-05-26T11:29:52.647Z,5.44
2017-05-26T11:32:22.648Z,4.66
2017-05-26T11:37:31.069Z,5.52
2017-05-26T11:39:57.895Z,4.02
2017-05-26T11:42:24.565Z,5.54
2017-05-26T11:44:52.499Z,3.76
2017-05-26T11:47:23.026Z,4.46
2017-05-26T11:50:03.885Z,4.36
2017-05-26T12:01:26.299Z,3.84
2017-05-26T12:06:50.928Z,5.30
2017-05-26T12:09:18.102Z,5.00
2017-05-26T12:11:44.865Z,4.68
2017-05-26T12:14:11.609Z,3.90
2017-05-26T12:16:39.064Z,5.56
2017-05-26T12:19:05.778Z,3.72
2017-05-26T12:21:32.537Z,4.42
2017-05-26T12:23:59.210Z,4.36
2017-05-26T12:26:26.008Z,4.40
2017-05-26T12:28:52.749Z,3.80
2017-05-26T12:31:21.614Z,5.02
2017-05-26T12:33:48.304Z,4.68
2017-05-26T12:36:15.180Z,3.66
2017-05-26T12:38:41.856Z,4.38
2017-05-26T12:41:08.534Z,5.14
2017-05-26T12:43:35.231Z,4.16
2017-05-26T12:46:01.982Z,3.32
2017-05-26T12:48:28.707Z,4.24
2017-05-26T12:50:55.452Z,6.48
2017-05-26T12:53:22.335Z,3.80
2017-05-26T12:55:49.068Z,3.82
2017-05-26T12:58:15.756Z,3.70
2017-05-26T13:00:42.528Z,4.12
2017-05-26T13:03:09.239Z,3.40
2017-05-26T13:05:35.976Z,3.66
2017-05-26T13:10:58.212Z,4.14
2017-05-26T13:13:26.452Z,4.40
2017-05-26T13:18:46.614Z,4.42
2017-05-26T13:21:14.173Z,3.54
2017-05-26T13:23:41.985Z,3.56
2017-05-26T13:29:02.467Z,3.80
2017-05-26T13:31:31.256Z,5.52
2017-05-26T13:33:58.268Z,3.10
2017-05-26T13:36:25.129Z,3.14
2017-05-26T13:38:51.839Z,3.46
2017-05-26T13:44:20.055Z,3.58
2017-05-26T13:46:46.825Z,4.42
2017-05-26T13:49:15.880Z,3.52
2017-05-26T13:51:43.396Z,3.64
2017-05-26T13:54:12.059Z,4.24
2017-05-26T13:56:39.686Z,4.12
2017-05-26T13:59:05.721Z,3.48
2017-05-26T14:04:28.896Z,4.34
2017-05-26T14:06:55.195Z,3.28
2017-05-26T14:09:21.140Z,3.70
2017-05-26T14:11:47.097Z,3.46
2017-05-26T14:14:14.364Z,3.12
2017-05-26T14:16:40.439Z,3.12
2017-05-26T14:19:08.392Z,3.20
2017-05-26T14:21:34.367Z,2.88
2017-05-26T14:24:01.065Z,3.54
2017-05-26T14:26:27.802Z,3.36
2017-05-26T14:29:02.877Z,3.66
2017-05-26T14:48:56.791Z,4.62
2017-05-26T14:51:33.071Z,3.70
2017-05-26T15:27:06.737Z,4.26
2017-05-26T15:37:24.007Z,2.96
2017-05-26T15:45:42.978Z,3.34
2017-05-26T15:48:09.016Z,5.26
2017-05-26T15:50:35.842Z,3.44
2017-05-26T15:53:05.350Z,3.40
2017-05-26T16:05:40.930Z,3.20
2017-05-26T16:08:07.822Z,2.90
2017-05-26T16:10:34.667Z,3.82
2017-05-26T16:13:03.250Z,3.84
2017-05-26T16:15:29.454Z,3.40
2017-05-26T23:58:21.415Z,5.98
